sensor_id;sensor_type;location;lat;lon;timestamp;temperature;humidity
4811;DHT22;2419;51.276;6.472;2023-08-31T00:02:26;12.40;99.90
4811;DHT22;2419;51.276;6.472;2023-08-31T00:04:54;12.40;99.90
4811;DHT22;2419;51.276;6.472;2023-08-31T00:07:22;12.40;99.90
4811;DHT22;2419;51.276;6.472;2023-08-31T00:09:52;12.30;99.90
4811;DHT22;2419;51.276;6.472;2023-08-31T00:12:20;12.20;99.90
4811;DHT22;2419;51.276;6.472;2023-08-31T00:14:49;12.20;99.90
4811;DHT22;2419;51.276;6.472;2023-08-31T00:17:17;12.20;99.90
4811;DHT22;2419;51.276;6.472;2023-08-31T00:19:45;12.20;99.90
4811;DHT22;2419;51.276;6.472;2023-08-31T00:22:13;12.10;99.90
4811;DHT22;2419;51.276;6.472;2023-08-31T00:24:41;12.20;99.90
4811;DHT22;2419;51.276;6.472;2023-08-31T00:27:11;12.20;99.90
4811;DHT22;2419;51.276;6.472;2023-08-31T00:29:42;12.20;99.90
4811;DHT22;2419;51.276;6.472;2023-08-31T00:32:16;12.20;99.90
4811;DHT22;2419;51.276;6.472;2023-08-31T00:34:44;12.20;99.90
4811;DHT22;2419;51.276;6.472;2023-08-31T00:37:12;12.20;99.90
4811;DHT22;2419;51.276;6.472;2023-08-31T00:39:40;12.20;99.90
4811;DHT22;2419;51.276;6.472;2023-08-31T00:42:13;12.20;99.90
4811;DHT22;2419;51.276;6.472;2023-08-31T00:44:41;12.20;99.90
4811;DHT22;2419;51.276;6.472;2023-08-31T00:47:09;12.10;99.90
4811;DHT22;2419;51.276;6.472;2023-08-31T00:49:37;12.10;99.90
4811;DHT22;2419;51.276;6.472;2023-08-31T00:52:06;12.10;99.90
4811;DHT22;2419;51.276;6.472;2023-08-31T00:54:35;12.10;99.90
4811;DHT22;2419;51.276;6.472;2023-08-31T00:57:04;12.10;99.90
4811;DHT22;2419;51.276;6.472;2023-08-31T00:59:35;12.10;99.90
4811;DHT22;2419;51.276;6.472;2023-08-31T01:02:07;12.00;99.90
4811;DHT22;2419;51.276;6.472;2023-08-31T01:04:41;12.10;99.90
4811;DHT22;2419;51.276;6.472;2023-08-31T01:07:21;12.00;99.90
4811;DHT22;2419;51.276;6.472;2023-08-31T01:10:02;12.10;99.90
4811;DHT22;2419;51.276;6.472;2023-08-31T01:12:36;12.00;99.90
4811;DHT22;2419;51.276;6.472;2023-08-31T01:15:11;12.00;99.90
4811;DHT22;2419;51.276;6.472;2023-08-31T01:17:45;11.90;99.90
4811;DHT22;2419;51.276;6.472;2023-08-31T01:20:19;11.90;99.90
4811;DHT22;2419;51.276;6.472;2023-08-31T01:23:00;11.90;99.90
4811;DHT22;2419;51.276;6.472;2023-08-31T01:25:31;11.80;99.90
4811;DHT22;2419;51.276;6.472;2023-08-31T01:28:00;11.90;99.90
4811;DHT22;2419;51.276;6.472;2023-08-31T01:30:29;11.90;99.90
4811;DHT22;2419;51.276;6.472;2023-08-31T01:32:58;11.80;99.90
4811;DHT22;2419;51.276;6.472;2023-08-31T01:35:28;11.90;99.90
4811;DHT22;2419;51.276;6.472;2023-08-31T01:38:00;11.90;99.90
4811;DHT22;2419;51.276;6.472;2023-08-31T01:40:35;11.90;99.90
4811;DHT22;2419;51.276;6.472;2023-08-31T01:43:06;11.90;99.90
4811;DHT22;2419;51.276;6.472;2023-08-31T01:45:35;11.90;99.90
4811;DHT22;2419;51.276;6.472;2023-08-31T01:48:05;11.90;99.90
4811;DHT22;2419;51.276;6.472;2023-08-31T01:50:34;11.90;99.90
4811;DHT22;2419;51.276;6.472;2023-08-31T01:53:02;11.90;99.90
4811;DHT22;2419;51.276;6.472;2023-08-31T01:55:32;11.90;99.90
4811;DHT22;2419;51.276;6.472;2023-08-31T01:58:00;11.90;99.90
4811;DHT22;2419;51.276;6.472;2023-08-31T02:00:29;11.90;99.90
4811;DHT22;2419;51.276;6.472;2023-08-31T02:07:27;11.90;99.90
4811;DHT22;2419;51.276;6.472;2023-08-31T02:09:55;11.80;99.90
4811;DHT22;2419;51.276;6.472;2023-08-31T02:12:24;11.80;99.90
4811;DHT22;2419;51.276;6.472;2023-08-31T02:14:52;11.80;99.90
4811;DHT22;2419;51.276;6.472;2023-08-31T02:17:20;11.80;99.90
4811;DHT22;2419;51.276;6.472;2023-08-31T02:19:48;11.80;99.90
4811;DHT22;2419;51.276;6.472;2023-08-31T02:22:16;11.80;99.90
4811;DHT22;2419;51.276;6.472;2023-08-31T02:24:47;11.80;99.90
4811;DHT22;2419;51.276;6.472;2023-08-31T02:27:15;11.80;99.90
4811;DHT22;2419;51.276;6.472;2023-08-31T02:29:44;11.70;99.90
4811;DHT22;2419;51.276;6.472;2023-08-31T02:32:12;11.70;99.90
4811;DHT22;2419;51.276;6.472;2023-08-31T02:34:41;11.60;99.90
4811;DHT22;2419;51.276;6.472;2023-08-31T02:37:08;11.70;99.90
4811;DHT22;2419;51.276;6.472;2023-08-31T02:39:37;11.70;99.90
4811;DHT22;2419;51.276;6.472;2023-08-31T02:42:05;11.60;99.90
4811;DHT22;2419;51.276;6.472;2023-08-31T02:44:34;11.60;99.90
4811;DHT22;2419;51.276;6.472;2023-08-31T02:47:04;11.60;99.90
4811;DHT22;2419;51.276;6.472;2023-08-31T02:49:32;11.60;99.90
4811;DHT22;2419;51.276;6.472;2023-08-31T02:52:00;11.50;99.90
4811;DHT22;2419;51.276;6.472;2023-08-31T02:54:29;11.50;99.90
4811;DHT22;2419;51.276;6.472;2023-08-31T02:56:57;11.60;99.90
4811;DHT22;2419;51.276;6.472;2023-08-31T02:59:25;11.60;99.90
4811;DHT22;2419;51.276;6.472;2023-08-31T03:01:53;11.50;99.90
4811;DHT22;2419;51.276;6.472;2023-08-31T03:04:22;11.50;99.90
4811;DHT22;2419;51.276;6.472;2023-08-31T03:06:50;11.50;99.90
4811;DHT22;2419;51.276;6.472;2023-08-31T03:09:18;11.40;99.90
4811;DHT22;2419;51.276;6.472;2023-08-31T03:11:47;11.40;99.90
4811;DHT22;2419;51.276;6.472;2023-08-31T03:14:15;11.40;99.90
4811;DHT22;2419;51.276;6.472;2023-08-31T03:16:43;11.30;99.90
4811;DHT22;2419;51.276;6.472;2023-08-31T03:19:11;11.30;99.90
4811;DHT22;2419;51.276;6.472;2023-08-31T03:21:41;11.30;99.90
4811;DHT22;2419;51.276;6.472;2023-08-31T03:24:09;11.30;99.90
4811;DHT22;2419;51.276;6.472;2023-08-31T03:26:38;11.30;99.90
4811;DHT22;2419;51.276;6.472;2023-08-31T03:29:06;11.30;99.90
4811;DHT22;2419;51.276;6.472;2023-08-31T03:31:35;11.30;99.90
4811;DHT22;2419;51.276;6.472;2023-08-31T03:34:04;11.30;99.90
4811;DHT22;2419;51.276;6.472;2023-08-31T03:36:32;11.30;99.90
4811;DHT22;2419;51.276;6.472;2023-08-31T03:39:02;11.40;99.90
4811;DHT22;2419;51.276;6.472;2023-08-31T03:41:31;11.40;99.90
4811;DHT22;2419;51.276;6.472;2023-08-31T03:43:59;11.30;99.90
4811;DHT22;2419;51.276;6.472;2023-08-31T03:46:28;11.30;99.90
4811;DHT22;2419;51.276;6.472;2023-08-31T03:48:56;11.30;99.90
4811;DHT22;2419;51.276;6.472;2023-08-31T03:55:50;11.30;99.90
4811;DHT22;2419;51.276;6.472;2023-08-31T03:58:18;11.30;99.90
4811;DHT22;2419;51.276;6.472;2023-08-31T04:00:49;11.30;99.90
4811;DHT22;2419;51.276;6.472;2023-08-31T04:03:18;11.30;99.90
4811;DHT22;2419;51.276;6.472;2023-08-31T04:05:47;11.20;99.90
4811;DHT22;2419;51.276;6.472;2023-08-31T04:08:15;11.20;99.90
4811;DHT22;2419;51.276;6.472;2023-08-31T04:10:43;11.30;99.90
4811;DHT22;2419;51.276;6.472;2023-08-31T04:13:14;11.20;99.90
4811;DHT22;2419;51.276;6.472;2023-08-31T04:15:42;11.20;99.90
4811;DHT22;2419;51.276;6.472;2023-08-31T04:18:10;11.20;99.90
4811;DHT22;2419;51.276;6.472;2023-08-31T04:20:48;11.20;99.90
4811;DHT22;2419;51.276;6.472;2023-08-31T04:23:16;11.20;99.90
4811;DHT22;2419;51.276;6.472;2023-08-31T04:25:44;11.20;99.90
4811;DHT22;2419;51.276;6.472;2023-08-31T04:28:14;11.20;99.90
4811;DHT22;2419;51.276;6.472;2023-08-31T04:30:42;11.10;99.90
4811;DHT22;2419;51.276;6.472;2023-08-31T04:33:11;11.20;99.90
4811;DHT22;2419;51.276;6.472;2023-08-31T04:35:40;11.20;99.90
4811;DHT22;2419;51.276;6.472;2023-08-31T04:38:08;11.20;99.90
4811;DHT22;2419;51.276;6.472;2023-08-31T04:40:36;11.20;99.90
4811;DHT22;2419;51.276;6.472;2023-08-31T04:43:04;11.20;99.90
4811;DHT22;2419;51.276;6.472;2023-08-31T04:45:34;11.20;99.90
4811;DHT22;2419;51.276;6.472;2023-08-31T04:48:02;11.20;99.90
4811;DHT22;2419;51.276;6.472;2023-08-31T04:55:00;11.30;99.90
4811;DHT22;2419;51.276;6.472;2023-08-31T04:57:28;11.30;99.90
4811;DHT22;2419;51.276;6.472;2023-08-31T04:59:56;11.30;99.90
4811;DHT22;2419;51.276;6.472;2023-08-31T05:02:25;11.30;99.90
4811;DHT22;2419;51.276;6.472;2023-08-31T05:04:53;11.30;99.90
4811;DHT22;2419;51.276;6.472;2023-08-31T05:07:21;11.30;99.90
4811;DHT22;2419;51.276;6.472;2023-08-31T05:09:49;11.30;99.90
4811;DHT22;2419;51.276;6.472;2023-08-31T05:12:18;11.40;99.90
4811;DHT22;2419;51.276;6.472;2023-08-31T05:14:46;11.40;99.90
4811;DHT22;2419;51.276;6.472;2023-08-31T05:17:14;11.40;99.90
4811;DHT22;2419;51.276;6.472;2023-08-31T05:19:43;11.40;99.90
4811;DHT22;2419;51.276;6.472;2023-08-31T05:22:11;11.40;99.90
4811;DHT22;2419;51.276;6.472;2023-08-31T05:24:39;11.40;99.90
4811;DHT22;2419;51.276;6.472;2023-08-31T05:27:08;11.40;99.90
4811;DHT22;2419;51.276;6.472;2023-08-31T05:29:35;11.40;99.90
4811;DHT22;2419;51.276;6.472;2023-08-31T05:32:04;11.50;99.90
4811;DHT22;2419;51.276;6.472;2023-08-31T05:34:32;11.70;99.90
4811;DHT22;2419;51.276;6.472;2023-08-31T05:37:05;11.80;99.90
4811;DHT22;2419;51.276;6.472;2023-08-31T05:39:34;11.90;99.90
4811;DHT22;2419;51.276;6.472;2023-08-31T05:42:02;12.00;99.90
4811;DHT22;2419;51.276;6.472;2023-08-31T05:44:30;12.10;99.90
4811;DHT22;2419;51.276;6.472;2023-08-31T05:46:58;12.10;99.90
4811;DHT22;2419;51.276;6.472;2023-08-31T05:49:26;12.10;99.90
4811;DHT22;2419;51.276;6.472;2023-08-31T05:51:54;12.10;99.90
4811;DHT22;2419;51.276;6.472;2023-08-31T05:54:24;12.10;99.90
4811;DHT22;2419;51.276;6.472;2023-08-31T05:56:52;12.10;99.90
4811;DHT22;2419;51.276;6.472;2023-08-31T05:59:20;12.10;99.90
4811;DHT22;2419;51.276;6.472;2023-08-31T06:01:48;12.10;99.90
4811;DHT22;2419;51.276;6.472;2023-08-31T06:04:18;12.10;99.90
4811;DHT22;2419;51.276;6.472;2023-08-31T06:06:46;12.10;99.90
4811;DHT22;2419;51.276;6.472;2023-08-31T06:09:14;12.20;99.90
4811;DHT22;2419;51.276;6.472;2023-08-31T06:11:44;12.30;99.90
4811;DHT22;2419;51.276;6.472;2023-08-31T06:14:12;12.40;99.90
4811;DHT22;2419;51.276;6.472;2023-08-31T06:16:40;12.40;99.90
4811;DHT22;2419;51.276;6.472;2023-08-31T06:19:08;12.50;99.90
4811;DHT22;2419;51.276;6.472;2023-08-31T06:21:36;12.60;99.90
4811;DHT22;2419;51.276;6.472;2023-08-31T06:24:05;12.70;99.90
4811;DHT22;2419;51.276;6.472;2023-08-31T06:26:35;12.70;99.90
4811;DHT22;2419;51.276;6.472;2023-08-31T06:29:05;12.80;99.90
4811;DHT22;2419;51.276;6.472;2023-08-31T06:31:34;12.90;99.90
4811;DHT22;2419;51.276;6.472;2023-08-31T06:34:02;13.00;99.90
4811;DHT22;2419;51.276;6.472;2023-08-31T06:36:31;13.00;99.90
4811;DHT22;2419;51.276;6.472;2023-08-31T06:38:59;13.10;99.90
4811;DHT22;2419;51.276;6.472;2023-08-31T06:41:27;13.20;99.90
4811;DHT22;2419;51.276;6.472;2023-08-31T06:43:55;13.20;99.90
4811;DHT22;2419;51.276;6.472;2023-08-31T06:46:25;13.20;99.90
4811;DHT22;2419;51.276;6.472;2023-08-31T06:48:53;13.30;99.90
4811;DHT22;2419;51.276;6.472;2023-08-31T06:51:21;13.40;99.90
4811;DHT22;2419;51.276;6.472;2023-08-31T06:53:51;13.40;99.90
4811;DHT22;2419;51.276;6.472;2023-08-31T06:56:19;13.50;99.90
4811;DHT22;2419;51.276;6.472;2023-08-31T06:58:47;13.60;99.90
4811;DHT22;2419;51.276;6.472;2023-08-31T07:01:15;13.60;99.90
4811;DHT22;2419;51.276;6.472;2023-08-31T07:03:44;13.60;99.90
4811;DHT22;2419;51.276;6.472;2023-08-31T07:06:13;13.80;99.90
4811;DHT22;2419;51.276;6.472;2023-08-31T07:08:41;13.80;99.90
4811;DHT22;2419;51.276;6.472;2023-08-31T07:11:11;13.80;99.90
4811;DHT22;2419;51.276;6.472;2023-08-31T07:13:40;13.90;99.90
4811;DHT22;2419;51.276;6.472;2023-08-31T07:16:08;13.90;99.90
4811;DHT22;2419;51.276;6.472;2023-08-31T07:18:36;14.00;99.90
4811;DHT22;2419;51.276;6.472;2023-08-31T07:21:06;14.10;99.90
4811;DHT22;2419;51.276;6.472;2023-08-31T07:23:37;14.10;99.90
4811;DHT22;2419;51.276;6.472;2023-08-31T07:26:05;14.30;99.90
4811;DHT22;2419;51.276;6.472;2023-08-31T07:28:35;14.30;99.90
4811;DHT22;2419;51.276;6.472;2023-08-31T07:31:03;14.30;99.90
4811;DHT22;2419;51.276;6.472;2023-08-31T07:33:33;14.20;99.90
4811;DHT22;2419;51.276;6.472;2023-08-31T07:36:04;14.30;99.90
4811;DHT22;2419;51.276;6.472;2023-08-31T07:38:34;14.40;99.90
4811;DHT22;2419;51.276;6.472;2023-08-31T07:41:02;14.40;99.90
4811;DHT22;2419;51.276;6.472;2023-08-31T07:43:31;14.50;99.90
4811;DHT22;2419;51.276;6.472;2023-08-31T07:45:59;14.60;99.90
4811;DHT22;2419;51.276;6.472;2023-08-31T07:48:27;14.70;99.90
4811;DHT22;2419;51.276;6.472;2023-08-31T07:50:55;14.70;99.90
4811;DHT22;2419;51.276;6.472;2023-08-31T07:53:23;14.90;99.90
4811;DHT22;2419;51.276;6.472;2023-08-31T07:55:55;15.00;99.90
4811;DHT22;2419;51.276;6.472;2023-08-31T07:58:23;15.20;99.90
4811;DHT22;2419;51.276;6.472;2023-08-31T08:00:53;15.30;99.90
4811;DHT22;2419;51.276;6.472;2023-08-31T08:03:22;15.40;99.90
4811;DHT22;2419;51.276;6.472;2023-08-31T08:05:50;15.40;99.90
4811;DHT22;2419;51.276;6.472;2023-08-31T08:08:18;15.50;99.90
4811;DHT22;2419;51.276;6.472;2023-08-31T08:10:46;15.50;99.90
4811;DHT22;2419;51.276;6.472;2023-08-31T08:13:16;15.60;99.90
4811;DHT22;2419;51.276;6.472;2023-08-31T08:15:45;15.70;99.90
4811;DHT22;2419;51.276;6.472;2023-08-31T08:18:13;15.70;99.90
4811;DHT22;2419;51.276;6.472;2023-08-31T08:20:41;15.60;99.90
4811;DHT22;2419;51.276;6.472;2023-08-31T08:23:09;15.80;99.90
4811;DHT22;2419;51.276;6.472;2023-08-31T08:25:38;15.80;99.90
4811;DHT22;2419;51.276;6.472;2023-08-31T08:28:06;16.00;99.90
4811;DHT22;2419;51.276;6.472;2023-08-31T08:30:35;16.00;99.90
4811;DHT22;2419;51.276;6.472;2023-08-31T08:33:04;16.00;99.90
4811;DHT22;2419;51.276;6.472;2023-08-31T08:35:32;16.20;99.90
4811;DHT22;2419;51.276;6.472;2023-08-31T08:38:00;16.30;99.90
4811;DHT22;2419;51.276;6.472;2023-08-31T08:40:30;16.40;99.90
4811;DHT22;2419;51.276;6.472;2023-08-31T08:43:00;16.50;99.90
4811;DHT22;2419;51.276;6.472;2023-08-31T08:45:35;16.60;99.90
4811;DHT22;2419;51.276;6.472;2023-08-31T08:48:06;16.70;99.90
4811;DHT22;2419;51.276;6.472;2023-08-31T08:50:36;16.90;99.90
4811;DHT22;2419;51.276;6.472;2023-08-31T08:53:05;16.90;99.90
4811;DHT22;2419;51.276;6.472;2023-08-31T08:55:33;17.00;99.90
4811;DHT22;2419;51.276;6.472;2023-08-31T08:58:02;17.00;99.90
4811;DHT22;2419;51.276;6.472;2023-08-31T09:00:31;17.00;99.90
4811;DHT22;2419;51.276;6.472;2023-08-31T09:03:01;17.00;99.90
4811;DHT22;2419;51.276;6.472;2023-08-31T09:05:31;17.10;99.90
4811;DHT22;2419;51.276;6.472;2023-08-31T09:08:04;17.20;99.90
4811;DHT22;2419;51.276;6.472;2023-08-31T09:10:35;17.30;99.90
4811;DHT22;2419;51.276;6.472;2023-08-31T09:13:07;17.40;99.90
4811;DHT22;2419;51.276;6.472;2023-08-31T09:15:38;17.30;99.90
4811;DHT22;2419;51.276;6.472;2023-08-31T09:18:09;17.40;99.90
4811;DHT22;2419;51.276;6.472;2023-08-31T09:20:47;17.60;99.90
4811;DHT22;2419;51.276;6.472;2023-08-31T09:23:16;17.60;99.90
4811;DHT22;2419;51.276;6.472;2023-08-31T09:25:45;17.70;99.90
4811;DHT22;2419;51.276;6.472;2023-08-31T09:28:16;17.90;99.90
4811;DHT22;2419;51.276;6.472;2023-08-31T09:30:46;17.90;99.90
4811;DHT22;2419;51.276;6.472;2023-08-31T09:33:17;18.00;99.90
4811;DHT22;2419;51.276;6.472;2023-08-31T09:35:51;18.20;99.90
4811;DHT22;2419;51.276;6.472;2023-08-31T09:38:19;18.20;99.90
4811;DHT22;2419;51.276;6.472;2023-08-31T09:40:48;18.30;99.90
4811;DHT22;2419;51.276;6.472;2023-08-31T09:43:20;18.30;99.90
4811;DHT22;2419;51.276;6.472;2023-08-31T09:45:49;18.00;99.90
4811;DHT22;2419;51.276;6.472;2023-08-31T09:48:19;18.00;99.90
4811;DHT22;2419;51.276;6.472;2023-08-31T09:50:49;18.20;99.90
4811;DHT22;2419;51.276;6.472;2023-08-31T09:53:20;18.20;99.90
4811;DHT22;2419;51.276;6.472;2023-08-31T09:55:49;18.50;99.90
4811;DHT22;2419;51.276;6.472;2023-08-31T09:58:20;18.80;99.90
4811;DHT22;2419;51.276;6.472;2023-08-31T10:00:49;18.90;99.90
4811;DHT22;2419;51.276;6.472;2023-08-31T10:03:20;19.20;99.90
4811;DHT22;2419;51.276;6.472;2023-08-31T10:05:49;19.40;99.90
4811;DHT22;2419;51.276;6.472;2023-08-31T10:08:18;19.50;99.90
4811;DHT22;2419;51.276;6.472;2023-08-31T10:10:46;19.50;99.90
4811;DHT22;2419;51.276;6.472;2023-08-31T10:13:14;19.60;99.90
4811;DHT22;2419;51.276;6.472;2023-08-31T10:15:44;19.50;99.90
4811;DHT22;2419;51.276;6.472;2023-08-31T10:18:12;19.20;99.90
4811;DHT22;2419;51.276;6.472;2023-08-31T10:20:43;20.10;99.90
4811;DHT22;2419;51.276;6.472;2023-08-31T10:23:12;20.60;99.90
4811;DHT22;2419;51.276;6.472;2023-08-31T10:26:00;20.20;99.90
4811;DHT22;2419;51.276;6.472;2023-08-31T10:28:39;19.60;99.90
4811;DHT22;2419;51.276;6.472;2023-08-31T10:31:08;19.10;99.90
4811;DHT22;2419;51.276;6.472;2023-08-31T10:33:40;19.10;99.90
4811;DHT22;2419;51.276;6.472;2023-08-31T10:36:14;19.00;99.90
4811;DHT22;2419;51.276;6.472;2023-08-31T10:38:45;19.10;99.90
4811;DHT22;2419;51.276;6.472;2023-08-31T10:41:19;20.20;99.90
4811;DHT22;2419;51.276;6.472;2023-08-31T10:43:50;21.50;99.90
4811;DHT22;2419;51.276;6.472;2023-08-31T10:46:24;20.80;99.90
4811;DHT22;2419;51.276;6.472;2023-08-31T10:48:53;21.00;99.90
4811;DHT22;2419;51.276;6.472;2023-08-31T10:51:24;22.20;99.90
4811;DHT22;2419;51.276;6.472;2023-08-31T10:54:07;23.00;96.10
4811;DHT22;2419;51.276;6.472;2023-08-31T10:57:02;23.30;95.40
4811;DHT22;2419;51.276;6.472;2023-08-31T10:59:57;22.90;97.50
4811;DHT22;2419;51.276;6.472;2023-08-31T11:02:28;22.30;97.60
4811;DHT22;2419;51.276;6.472;2023-08-31T11:04:59;22.00;97.50
4811;DHT22;2419;51.276;6.472;2023-08-31T11:07:29;21.60;97.10
4811;DHT22;2419;51.276;6.472;2023-08-31T11:10:08;20.50;99.90
4811;DHT22;2419;51.276;6.472;2023-08-31T11:12:36;19.60;99.90
4811;DHT22;2419;51.276;6.472;2023-08-31T11:15:06;19.10;99.90
4811;DHT22;2419;51.276;6.472;2023-08-31T11:17:34;18.90;99.90
4811;DHT22;2419;51.276;6.472;2023-08-31T11:20:03;18.90;99.90
4811;DHT22;2419;51.276;6.472;2023-08-31T11:22:34;18.40;99.90
4811;DHT22;2419;51.276;6.472;2023-08-31T11:25:07;18.10;99.90
4811;DHT22;2419;51.276;6.472;2023-08-31T11:27:35;17.70;99.90
4811;DHT22;2419;51.276;6.472;2023-08-31T11:30:06;17.60;99.90
4811;DHT22;2419;51.276;6.472;2023-08-31T11:32:44;17.50;99.90
4811;DHT22;2419;51.276;6.472;2023-08-31T11:35:13;17.70;99.90
4811;DHT22;2419;51.276;6.472;2023-08-31T11:37:43;18.00;99.90
4811;DHT22;2419;51.276;6.472;2023-08-31T11:40:14;18.40;99.90
4811;DHT22;2419;51.276;6.472;2023-08-31T11:42:42;18.50;99.90
4811;DHT22;2419;51.276;6.472;2023-08-31T11:45:11;18.60;99.90
4811;DHT22;2419;51.276;6.472;2023-08-31T11:47:41;18.60;99.90
4811;DHT22;2419;51.276;6.472;2023-08-31T11:50:11;18.60;99.90
4811;DHT22;2419;51.276;6.472;2023-08-31T11:52:40;18.80;99.90
4811;DHT22;2419;51.276;6.472;2023-08-31T11:55:15;19.10;99.90
4811;DHT22;2419;51.276;6.472;2023-08-31T11:57:48;19.30;99.90
4811;DHT22;2419;51.276;6.472;2023-08-31T12:00:18;19.30;99.90
4811;DHT22;2419;51.276;6.472;2023-08-31T12:02:55;18.90;99.90
4811;DHT22;2419;51.276;6.472;2023-08-31T12:05:24;19.00;99.90
4811;DHT22;2419;51.276;6.472;2023-08-31T12:07:53;19.40;99.90
4811;DHT22;2419;51.276;6.472;2023-08-31T12:10:25;19.70;99.90
4811;DHT22;2419;51.276;6.472;2023-08-31T12:12:54;19.80;99.90
4811;DHT22;2419;51.276;6.472;2023-08-31T12:15:35;20.00;99.90
4811;DHT22;2419;51.276;6.472;2023-08-31T12:18:07;20.90;99.90
4811;DHT22;2419;51.276;6.472;2023-08-31T12:20:43;21.00;99.90
4811;DHT22;2419;51.276;6.472;2023-08-31T12:23:11;21.60;99.90
4811;DHT22;2419;51.276;6.472;2023-08-31T12:25:47;22.10;99.90
4811;DHT22;2419;51.276;6.472;2023-08-31T12:28:16;21.80;99.90
4811;DHT22;2419;51.276;6.472;2023-08-31T12:30:47;21.40;99.10
4811;DHT22;2419;51.276;6.472;2023-08-31T12:33:16;20.70;99.10
4811;DHT22;2419;51.276;6.472;2023-08-31T12:35:45;21.10;99.90
4811;DHT22;2419;51.276;6.472;2023-08-31T12:38:13;21.70;99.10
4811;DHT22;2419;51.276;6.472;2023-08-31T12:40:41;22.80;97.40
4811;DHT22;2419;51.276;6.472;2023-08-31T12:43:11;22.90;96.50
4811;DHT22;2419;51.276;6.472;2023-08-31T12:45:40;22.50;96.60
4811;DHT22;2419;51.276;6.472;2023-08-31T12:48:08;22.10;97.20
4811;DHT22;2419;51.276;6.472;2023-08-31T12:50:36;21.50;98.00
4811;DHT22;2419;51.276;6.472;2023-08-31T12:53:04;21.70;98.90
4811;DHT22;2419;51.276;6.472;2023-08-31T12:55:32;22.10;97.80
4811;DHT22;2419;51.276;6.472;2023-08-31T12:58:00;21.70;97.40
4811;DHT22;2419;51.276;6.472;2023-08-31T13:00:29;21.60;97.60
4811;DHT22;2419;51.276;6.472;2023-08-31T13:02:57;22.10;98.70
4811;DHT22;2419;51.276;6.472;2023-08-31T13:05:25;23.10;96.20
4811;DHT22;2419;51.276;6.472;2023-08-31T13:07:55;23.10;92.50
4811;DHT22;2419;51.276;6.472;2023-08-31T13:10:23;22.80;91.60
4811;DHT22;2419;51.276;6.472;2023-08-31T13:12:51;22.30;92.20
4811;DHT22;2419;51.276;6.472;2023-08-31T13:15:19;22.40;93.50
4811;DHT22;2419;51.276;6.472;2023-08-31T13:17:49;22.60;93.50
4811;DHT22;2419;51.276;6.472;2023-08-31T13:20:17;22.20;94.60
4811;DHT22;2419;51.276;6.472;2023-08-31T13:22:45;21.60;96.10
4811;DHT22;2419;51.276;6.472;2023-08-31T13:25:13;21.90;96.50
4811;DHT22;2419;51.276;6.472;2023-08-31T13:27:42;22.30;96.00
4811;DHT22;2419;51.276;6.472;2023-08-31T13:30:11;22.50;94.70
4811;DHT22;2419;51.276;6.472;2023-08-31T13:32:40;21.60;92.60
4811;DHT22;2419;51.276;6.472;2023-08-31T13:35:10;21.70;95.20
4811;DHT22;2419;51.276;6.472;2023-08-31T13:37:38;21.70;95.60
4811;DHT22;2419;51.276;6.472;2023-08-31T13:40:07;22.00;95.50
4811;DHT22;2419;51.276;6.472;2023-08-31T13:42:36;21.90;93.70
4811;DHT22;2419;51.276;6.472;2023-08-31T13:45:07;21.80;95.30
4811;DHT22;2419;51.276;6.472;2023-08-31T13:47:35;21.50;94.10
4811;DHT22;2419;51.276;6.472;2023-08-31T13:50:05;21.60;96.00
4811;DHT22;2419;51.276;6.472;2023-08-31T13:52:35;21.30;95.10
4811;DHT22;2419;51.276;6.472;2023-08-31T13:55:04;21.40;96.40
4811;DHT22;2419;51.276;6.472;2023-08-31T13:57:32;21.50;95.50
4811;DHT22;2419;51.276;6.472;2023-08-31T14:00:00;21.30;95.40
4811;DHT22;2419;51.276;6.472;2023-08-31T14:02:35;20.80;96.10
4811;DHT22;2419;51.276;6.472;2023-08-31T14:05:05;20.70;97.40
4811;DHT22;2419;51.276;6.472;2023-08-31T14:07:36;20.50;96.00
4811;DHT22;2419;51.276;6.472;2023-08-31T14:10:05;20.40;96.50
4811;DHT22;2419;51.276;6.472;2023-08-31T14:12:34;20.30;96.30
4811;DHT22;2419;51.276;6.472;2023-08-31T14:15:02;20.30;97.30
4811;DHT22;2419;51.276;6.472;2023-08-31T14:17:31;20.20;96.40
4811;DHT22;2419;51.276;6.472;2023-08-31T14:19:59;20.10;96.60
4811;DHT22;2419;51.276;6.472;2023-08-31T14:22:31;20.00;98.10
4811;DHT22;2419;51.276;6.472;2023-08-31T14:25:01;20.10;98.00
4811;DHT22;2419;51.276;6.472;2023-08-31T14:27:30;20.10;98.00
4811;DHT22;2419;51.276;6.472;2023-08-31T14:29:58;20.10;98.40
4811;DHT22;2419;51.276;6.472;2023-08-31T14:32:26;20.00;99.40
4811;DHT22;2419;51.276;6.472;2023-08-31T14:34:54;19.90;99.40
4811;DHT22;2419;51.276;6.472;2023-08-31T14:37:22;19.90;99.90
4811;DHT22;2419;51.276;6.472;2023-08-31T14:39:51;19.80;99.90
4811;DHT22;2419;51.276;6.472;2023-08-31T14:42:20;19.80;99.90
4811;DHT22;2419;51.276;6.472;2023-08-31T14:44:48;19.80;99.90
4811;DHT22;2419;51.276;6.472;2023-08-31T14:47:17;19.50;99.90
4811;DHT22;2419;51.276;6.472;2023-08-31T14:49:45;19.10;99.90
4811;DHT22;2419;51.276;6.472;2023-08-31T14:52:13;18.90;99.90
4811;DHT22;2419;51.276;6.472;2023-08-31T14:54:41;18.70;99.90
4811;DHT22;2419;51.276;6.472;2023-08-31T14:57:09;18.50;99.90
4811;DHT22;2419;51.276;6.472;2023-08-31T14:59:39;18.40;99.90
4811;DHT22;2419;51.276;6.472;2023-08-31T15:02:08;18.40;99.90
4811;DHT22;2419;51.276;6.472;2023-08-31T15:04:36;18.40;99.90
4811;DHT22;2419;51.276;6.472;2023-08-31T15:07:04;18.40;99.90
4811;DHT22;2419;51.276;6.472;2023-08-31T15:09:32;18.20;99.90
4811;DHT22;2419;51.276;6.472;2023-08-31T15:12:00;18.10;99.90
4811;DHT22;2419;51.276;6.472;2023-08-31T15:14:28;18.10;99.90
4811;DHT22;2419;51.276;6.472;2023-08-31T15:16:58;18.10;99.90
4811;DHT22;2419;51.276;6.472;2023-08-31T15:19:28;18.10;99.90
4811;DHT22;2419;51.276;6.472;2023-08-31T15:21:56;18.00;99.90
4811;DHT22;2419;51.276;6.472;2023-08-31T15:24:24;18.00;99.90
4811;DHT22;2419;51.276;6.472;2023-08-31T15:26:52;18.00;99.90
4811;DHT22;2419;51.276;6.472;2023-08-31T15:29:20;17.80;99.90
4811;DHT22;2419;51.276;6.472;2023-08-31T15:31:48;17.70;99.90
4811;DHT22;2419;51.276;6.472;2023-08-31T15:34:18;17.60;99.90
4811;DHT22;2419;51.276;6.472;2023-08-31T15:36:46;17.50;99.90
4811;DHT22;2419;51.276;6.472;2023-08-31T15:39:14;17.40;99.90
4811;DHT22;2419;51.276;6.472;2023-08-31T15:41:42;17.30;99.90
4811;DHT22;2419;51.276;6.472;2023-08-31T15:44:10;17.30;99.90
4811;DHT22;2419;51.276;6.472;2023-08-31T15:46:38;17.20;99.90
4811;DHT22;2419;51.276;6.472;2023-08-31T15:49:06;17.20;99.90
4811;DHT22;2419;51.276;6.472;2023-08-31T15:51:36;17.20;99.90
4811;DHT22;2419;51.276;6.472;2023-08-31T15:54:04;17.30;99.90
4811;DHT22;2419;51.276;6.472;2023-08-31T15:56:32;17.20;99.90
4811;DHT22;2419;51.276;6.472;2023-08-31T15:59:00;17.10;99.90
4811;DHT22;2419;51.276;6.472;2023-08-31T16:01:28;17.20;99.90
4811;DHT22;2419;51.276;6.472;2023-08-31T16:03:57;17.30;99.90
4811;DHT22;2419;51.276;6.472;2023-08-31T16:06:25;17.40;99.90
4811;DHT22;2419;51.276;6.472;2023-08-31T16:08:55;17.60;99.90
4811;DHT22;2419;51.276;6.472;2023-08-31T16:11:24;17.80;99.90
4811;DHT22;2419;51.276;6.472;2023-08-31T16:13:52;17.90;99.90
4811;DHT22;2419;51.276;6.472;2023-08-31T16:16:22;17.60;99.90
4811;DHT22;2419;51.276;6.472;2023-08-31T16:18:50;17.70;99.90
4811;DHT22;2419;51.276;6.472;2023-08-31T16:21:18;17.70;99.90
4811;DHT22;2419;51.276;6.472;2023-08-31T16:23:46;17.60;99.90
4811;DHT22;2419;51.276;6.472;2023-08-31T16:26:18;17.60;99.90
4811;DHT22;2419;51.276;6.472;2023-08-31T16:28:46;17.40;99.90
4811;DHT22;2419;51.276;6.472;2023-08-31T16:31:14;17.30;99.90